createdAt,value
2018-11-01T00:01:30.344Z,87.75
2018-11-01T00:06:24.827Z,88.54
2018-11-01T00:11:19.244Z,88.97
2018-11-01T00:16:13.696Z,89.08
2018-11-01T00:21:09.360Z,89.38
2018-11-01T00:26:03.799Z,89.24
2018-11-01T00:30:58.347Z,89.76
2018-11-01T00:35:52.812Z,90.54
2018-11-01T00:40:47.283Z,89.81
2018-11-01T00:45:41.809Z,90.14
2018-11-01T00:50:36.245Z,89.90
2018-11-01T00:55:30.812Z,90.60
2018-11-01T01:00:25.480Z,90.74
2018-11-01T01:05:20.104Z,90.71
2018-11-01T01:10:16.247Z,90.16
2018-11-01T01:15:10.707Z,89.61
2018-11-01T01:20:08.154Z,90.36
2018-11-01T01:25:02.619Z,91.00
2018-11-01T01:29:57.051Z,90.02
2018-11-01T01:34:51.572Z,90.61
2018-11-01T01:39:45.988Z,91.27
2018-11-01T01:44:40.496Z,91.78
2018-11-01T01:49:34.944Z,91.64
2018-11-01T01:54:29.852Z,91.99
2018-11-01T01:59:24.280Z,91.69
2018-11-01T02:04:18.851Z,91.33
2018-11-01T02:09:13.983Z,91.09
2018-11-01T02:14:08.533Z,91.41
2018-11-01T02:19:02.987Z,91.48
2018-11-01T02:23:57.425Z,91.81
2018-11-01T02:28:51.852Z,91.69
2018-11-01T02:33:46.383Z,91.63
2018-11-01T02:38:40.881Z,90.91
2018-11-01T02:43:35.287Z,91.03
2018-11-01T02:48:29.753Z,92.22
2018-11-01T02:53:24.176Z,91.39
2018-11-01T02:58:18.623Z,92.15
2018-11-01T03:03:13.092Z,92.46
2018-11-01T03:08:07.608Z,92.00
2018-11-01T03:13:02.222Z,92.47
2018-11-01T03:17:56.660Z,92.39
2018-11-01T03:22:51.144Z,92.13
2018-11-01T03:27:45.704Z,92.12
2018-11-01T03:32:40.167Z,92.54
2018-11-01T03:37:34.596Z,92.57
2018-11-01T03:42:29.083Z,92.21
2018-11-01T03:47:23.508Z,92.20
2018-11-01T03:52:17.976Z,92.44
2018-11-01T03:57:12.383Z,92.52
2018-11-01T04:02:07.192Z,92.59
2018-11-01T04:07:01.613Z,92.35
2018-11-01T04:11:56.042Z,92.52
2018-11-01T04:16:50.501Z,92.07
2018-11-01T04:21:44.939Z,92.45
2018-11-01T04:26:39.400Z,91.56
2018-11-01T04:31:33.902Z,91.06
2018-11-01T04:36:28.379Z,91.97
2018-11-01T04:41:22.834Z,92.89
2018-11-01T04:46:17.261Z,92.56
2018-11-01T04:51:11.680Z,92.73
2018-11-01T04:56:06.902Z,92.29
2018-11-01T05:01:01.384Z,92.19
2018-11-01T05:05:55.846Z,92.31
2018-11-01T05:10:50.302Z,92.34
2018-11-01T05:15:44.777Z,91.98
2018-11-01T05:20:39.227Z,92.31
2018-11-01T05:25:33.776Z,90.92
2018-11-01T05:30:28.414Z,90.94
2018-11-01T05:35:22.880Z,91.47
2018-11-01T05:40:17.325Z,91.79
2018-11-01T05:45:12.100Z,92.26
2018-11-01T05:50:07.468Z,92.93
2018-11-01T05:55:01.933Z,92.88
2018-11-01T05:59:56.408Z,92.77
2018-11-01T06:04:50.857Z,91.84
2018-11-01T06:09:45.393Z,91.74
2018-11-01T06:14:39.852Z,92.22
2018-11-01T06:19:34.311Z,91.99
2018-11-01T06:24:28.772Z,91.79
2018-11-01T06:29:23.215Z,91.48
2018-11-01T06:34:21.872Z,91.05
2018-11-01T06:39:20.549Z,91.06
2018-11-01T06:44:15.013Z,90.78
2018-11-01T06:49:09.440Z,90.91
2018-11-01T06:54:03.879Z,91.11
2018-11-01T06:58:58.426Z,91.41
2018-11-01T07:03:52.821Z,89.88
2018-11-01T07:08:47.279Z,91.00
2018-11-01T07:13:41.735Z,90.37
2018-11-01T07:18:36.249Z,90.59
2018-11-01T07:23:30.604Z,90.17
2018-11-01T07:28:26.012Z,89.25
2018-11-01T07:33:20.470Z,89.39
2018-11-01T07:38:14.892Z,90.13
2018-11-01T07:43:09.342Z,89.87
2018-11-01T07:48:03.798Z,89.27
2018-11-01T07:52:58.374Z,90.51
2018-11-01T07:57:52.752Z,89.83
2018-11-01T08:02:48.016Z,89.94
2018-11-01T08:07:42.856Z,89.22
2018-11-01T08:12:37.323Z,90.18
2018-11-01T08:17:31.771Z,89.91
2018-11-01T08:22:26.241Z,88.49
2018-11-01T08:27:20.684Z,87.94
2018-11-01T08:32:15.144Z,87.46
2018-11-01T08:37:09.688Z,87.01
2018-11-01T08:42:04.177Z,87.71
2018-11-01T08:46:58.685Z,89.03
2018-11-01T08:51:53.188Z,88.43
2018-11-01T08:56:47.644Z,86.40
2018-11-01T09:01:42.072Z,87.06
2018-11-01T09:06:36.574Z,85.93
2018-11-01T09:11:31.132Z,85.03
2018-11-01T09:16:25.619Z,84.60
2018-11-01T09:21:20.072Z,83.92
2018-11-01T09:26:14.793Z,83.12
2018-11-01T09:31:09.288Z,81.77
2018-11-01T09:36:03.861Z,78.09
2018-11-01T09:40:58.496Z,73.82
2018-11-01T09:45:53.220Z,72.78
2018-11-01T09:50:47.733Z,70.41
2018-11-01T09:55:42.226Z,71.54
2018-11-01T10:00:36.788Z,70.55
2018-11-01T10:05:31.247Z,69.17
2018-11-01T10:10:25.849Z,70.39
2018-11-01T10:15:20.362Z,70.92
2018-11-01T10:20:15.381Z,67.63
2018-11-01T10:25:11.652Z,67.52
2018-11-01T10:30:09.032Z,68.29
2018-11-01T10:35:03.605Z,68.87
2018-11-01T10:39:58.029Z,68.39
2018-11-01T10:44:52.726Z,67.50
2018-11-01T10:49:47.187Z,67.53
2018-11-01T10:54:41.608Z,67.44
2018-11-01T10:59:36.042Z,67.05
2018-11-01T11:04:30.541Z,67.22
2018-11-01T11:09:25.013Z,67.43
2018-11-01T11:14:19.500Z,68.58
2018-11-01T11:19:14.054Z,68.33
2018-11-01T11:24:08.493Z,66.70
2018-11-01T11:29:02.933Z,66.45
2018-11-01T11:33:57.404Z,64.46
2018-11-01T11:38:51.889Z,64.03
2018-11-01T11:43:46.349Z,65.07
2018-11-01T11:48:41.048Z,65.34
2018-11-01T11:53:35.565Z,64.27
2018-11-01T11:58:30.090Z,63.59
2018-11-01T12:03:24.512Z,64.65
2018-11-01T12:08:18.940Z,63.60
2018-11-01T12:13:13.396Z,62.29
2018-11-01T12:18:07.831Z,63.01
2018-11-01T12:23:02.261Z,63.13
2018-11-01T12:27:56.718Z,61.94
2018-11-01T12:32:51.196Z,62.15
2018-11-01T12:37:45.716Z,62.25
2018-11-01T12:42:40.212Z,60.82
2018-11-01T12:47:34.617Z,60.20
2018-11-01T12:52:29.048Z,59.66
2018-11-01T12:57:23.529Z,60.31
2018-11-01T13:02:18.084Z,60.06
2018-11-01T13:07:12.492Z,60.66
2018-11-01T13:12:07.791Z,60.07
2018-11-01T13:17:02.420Z,58.95
2018-11-01T13:21:56.884Z,59.73
2018-11-01T13:26:51.512Z,60.42
2018-11-01T13:31:46.078Z,58.98
2018-11-01T13:36:40.624Z,59.41
2018-11-01T13:41:35.228Z,59.66
2018-11-01T13:46:29.669Z,60.35
2018-11-01T13:51:24.098Z,60.00
2018-11-01T13:56:18.629Z,59.82
2018-11-01T14:01:13.098Z,59.72
2018-11-01T14:06:07.816Z,59.83
2018-11-01T14:11:02.276Z,60.42
2018-11-01T14:15:56.692Z,60.77
2018-11-01T14:20:51.186Z,60.13
2018-11-01T14:25:45.767Z,59.97
2018-11-01T14:30:40.213Z,59.81
2018-11-01T14:35:34.649Z,60.33
2018-11-01T14:40:29.048Z,60.68
2018-11-01T14:45:23.542Z,61.34
2018-11-01T14:50:18.198Z,61.12
2018-11-01T14:55:13.176Z,61.20
2018-11-01T15:00:08.910Z,61.63
2018-11-01T15:05:03.445Z,62.67
2018-11-01T15:09:57.880Z,62.79
2018-11-01T15:14:52.288Z,64.10
2018-11-01T15:19:46.834Z,64.65
2018-11-01T15:24:41.356Z,65.69
2018-11-01T15:29:35.824Z,67.40
2018-11-01T15:34:31.157Z,68.81
2018-11-01T15:39:25.628Z,69.49
2018-11-01T15:44:20.107Z,70.23
2018-11-01T15:49:15.647Z,71.47
2018-11-01T15:54:10.155Z,73.34
2018-11-01T15:59:04.640Z,73.06
2018-11-01T16:03:59.225Z,73.62
2018-11-01T16:08:53.679Z,74.60
2018-11-01T16:13:48.249Z,74.55
2018-11-01T16:18:42.795Z,75.94
2018-11-01T16:23:37.280Z,76.34
2018-11-01T16:28:31.812Z,77.73
2018-11-01T16:33:26.332Z,78.84
2018-11-01T16:38:20.856Z,79.58
2018-11-01T16:43:15.380Z,80.60
2018-11-01T16:48:09.848Z,81.13
2018-11-01T16:53:04.404Z,81.86
2018-11-01T16:57:58.977Z,81.90
2018-11-01T17:02:53.424Z,82.25
2018-11-01T17:07:47.856Z,82.33
2018-11-01T17:12:42.316Z,83.12
2018-11-01T17:17:36.776Z,84.47
2018-11-01T17:22:31.461Z,84.14
2018-11-01T17:27:26.328Z,84.59
2018-11-01T17:32:20.842Z,83.31
2018-11-01T17:37:15.384Z,84.43
2018-11-01T17:42:09.933Z,84.12
2018-11-01T17:47:04.474Z,85.27
2018-11-01T17:51:59.009Z,86.40
2018-11-01T17:56:53.440Z,87.05
2018-11-01T18:01:47.950Z,87.14
2018-11-01T18:06:42.574Z,86.11
2018-11-01T18:11:37.165Z,86.34
2018-11-01T18:16:31.952Z,85.99
2018-11-01T18:21:26.529Z,85.13
2018-11-01T18:26:21.008Z,85.45
2018-11-01T18:31:15.515Z,85.26
2018-11-01T18:36:10.477Z,85.76
2018-11-01T18:41:05.256Z,86.34
2018-11-01T18:45:59.629Z,85.82
2018-11-01T18:50:54.169Z,86.22
2018-11-01T18:55:48.658Z,83.83
2018-11-01T19:00:43.153Z,82.46
2018-11-01T19:05:37.554Z,82.79
2018-11-01T19:10:32.309Z,80.07
2018-11-01T19:15:26.836Z,80.40
2018-11-01T19:20:21.338Z,79.89
2018-11-01T19:25:15.927Z,78.72
2018-11-01T19:30:12.153Z,76.79
2018-11-01T19:35:08.129Z,77.84
2018-11-01T19:40:03.001Z,78.60
2018-11-01T19:44:57.645Z,79.07
2018-11-01T19:49:52.111Z,79.66
2018-11-01T19:54:46.701Z,79.54
2018-11-01T19:59:41.143Z,80.01
2018-11-01T20:04:35.632Z,79.91
2018-11-01T20:09:30.143Z,80.52
2018-11-01T20:14:24.673Z,81.25
2018-11-01T20:19:19.269Z,82.06
2018-11-01T20:24:13.757Z,83.38
2018-11-01T20:29:08.456Z,84.00
2018-11-01T20:34:03.562Z,84.14
2018-11-01T20:38:58.140Z,84.62
2018-11-01T20:43:52.691Z,84.83
2018-11-01T20:48:47.595Z,84.58
2018-11-01T20:53:42.099Z,84.62
2018-11-01T20:58:36.588Z,84.58
2018-11-01T21:03:31.155Z,84.48
2018-11-01T21:08:25.780Z,84.82
2018-11-01T21:13:20.257Z,84.87
2018-11-01T21:18:14.697Z,85.32
2018-11-01T21:23:09.180Z,84.94
2018-11-01T21:28:03.632Z,84.68
2018-11-01T21:32:58.137Z,86.04
2018-11-01T21:37:52.672Z,85.91
2018-11-01T21:42:47.170Z,85.52
2018-11-01T21:47:42.017Z,86.09
2018-11-01T21:52:36.454Z,86.15
2018-11-01T21:57:31.010Z,86.53
2018-11-01T22:02:25.528Z,86.81
2018-11-01T22:07:19.989Z,86.90
2018-11-01T22:12:14.436Z,86.28
2018-11-01T22:17:08.971Z,86.52
2018-11-01T22:22:03.593Z,86.53
2018-11-01T22:26:58.042Z,86.08
2018-11-01T22:31:52.519Z,86.32
2018-11-01T22:36:47.083Z,85.34
2018-11-01T22:41:41.520Z,85.91
2018-11-01T22:46:35.967Z,86.29
2018-11-01T22:51:30.417Z,86.43
2018-11-01T22:56:24.928Z,86.61
2018-11-01T23:01:19.367Z,87.14
2018-11-01T23:06:13.831Z,87.62
2018-11-01T23:11:08.337Z,88.21
2018-11-01T23:16:02.797Z,87.87
2018-11-01T23:20:57.243Z,88.46
2018-11-01T23:25:51.676Z,89.46
2018-11-01T23:30:46.219Z,89.29
2018-11-01T23:35:40.685Z,89.42
2018-11-01T23:40:40.095Z,89.44
2018-11-01T23:45:39.737Z,88.61
2018-11-01T23:50:42.056Z,89.75
2018-11-01T23:55:36.509Z,90.04
